Weather at M. Graham Clark Downtown Airport

Public forecast

Using degrees Fahrenheit for public forecast. Weather courtesy of forecast.io.

Closest aviation weather report (METAR) to M. Graham Clark Downtown Airport

Closest report is Boone County Airport, 22.2 nm (41.1 km) S. Retrieved 2021/09/23 20:53 UTC (33 minutes ago):

KHRO 232053Z AUTO 29007KT 270V330 10SM CLR 24/03 A3009 RMK AO2 SLP182 T02390033 56021

Closest aviation forecast (TAF) to M. Graham Clark Downtown Airport

Closest forecast is Boone County Airport, 22.2 nm (41.1 km) S. Retrieved 2021/09/23 18:22 UTC (3 hours ago):

TAF KHRO 231720Z 2318/2418 VRB05KT P6SM SKC